Ryoei Maru — JL6703 — position and weather

sailwx.info

Track history (hours):
 
Tides and Currents Weather Stations Pressure Air Temp Water Temp Dewpoint Dewpoint Depression Visibility Wind Speed Wind Dir Waves Ship Positions

Ryoei Maru

Last reported at 2018-May-22 20:30 UTC. Time now 2018-May-22 23:39 UTC.
Position N 34°44' E 139°38'.

Length 95 m; draft 5 m.

Type: Cargo ship. MMSI: 431501749.

Date/timePositionNaut miles runAvg speedWind from/ knotsBaromVisibWave heightAir tempDewpointWater temp
2018-May-22 20:30N 34°44' E 139°38'711.9
2018-May-22 19:56N 34°47' E 139°45'  
2018-May-17 12:02N 33°43' E 135°10'212.4
2018-May-17 11:53N 33°45' E 135°08'512.3
2018-May-17 11:30N 33°48' E 135°04'611.4
2018-May-17 11:00N 33°53' E 135°01'611.0
2018-May-17 10:31N 33°58' E 134°59'611.4
2018-May-17 10:00N 34°04' E 134°59'611.3
2018-May-17 09:30N 34°09' E 134°59'713.3
2018-May-17 09:00N 34°16' E 134°59'611.9
2018-May-17 08:30N 34°22' E 134°60'611.7
2018-May-17 08:00N 34°28' E 135°02'611.9
2018-May-17 07:30N 34°33' E 135°04'712.5
2018-May-17 06:58N 34°36' E 134°57'714.4
2018-May-17 06:30N 34°40' E 134°49'3 0.4
2018-May-16 22:04N 34°43' E 134°51'0 6.9
2018-May-16 22:00N 34°42' E 134°50'2 4.3
2018-May-16 21:26N 34°40' E 134°49'0 0.0
2018-May-16 20:56N 34°40' E 134°49'0 0.0
2018-May-16 20:29N 34°40' E 134°49'0 0.0
2018-May-16 19:59N 34°40' E 134°49'0 0.0
2018-May-16 19:29N 34°40' E 134°49'0 0.0
2018-May-16 18:59N 34°40' E 134°49'0 0.0
2018-May-16 18:29N 34°40' E 134°49'0 0.0
2018-May-16 17:59N 34°40' E 134°49'0 0.0
2018-May-16 17:29N 34°40' E 134°49'0 0.0
2018-May-16 16:59N 34°40' E 134°49'0 0.0
2018-May-16 16:29N 34°40' E 134°49'0 0.0
2018-May-16 15:59N 34°40' E 134°49'0 0.0
2018-May-16 15:29N 34°40' E 134°49'0 0.0
2018-May-16 14:59N 34°40' E 134°49'0 0.0
2018-May-16 14:29N 34°40' E 134°49'1 1.1
2018-May-16 14:01N 34°40' E 134°50'612.3
2018-May-16 13:31N 34°38' E 134°57'714.3
2018-May-16 13:00N 34°36' E 135°05'612.9
2018-May-16 12:30N 34°36' E 135°13'612.3
2018-May-16 12:00N 34°37' E 135°21'4 8.1
2018-May-16 11:30N 34°37' E 135°26'0 0.0
2018-May-16 10:59N 34°37' E 135°26'0 0.0
2018-May-16 10:29N 34°37' E 135°26'0 0.0
2018-May-16 09:41N 34°37' E 135°26'0 0.0
2018-May-16 09:29N 34°37' E 135°26'0 0.0
2018-May-16 08:59N 34°37' E 135°26'0 0.0
2018-May-16 08:29N 34°37' E 135°26'0 0.0
2018-May-16 07:53N 34°37' E 135°26'0 0.0
2018-May-16 07:17N 34°37' E 135°26'0 0.0
2018-May-16 06:59N 34°37' E 135°26'0 0.0
2018-May-16 06:29N 34°37' E 135°26'0 0.0
2018-May-16 05:53N 34°37' E 135°26'0 0.0
2018-May-16 05:29N 34°37' E 135°26'0 0.0
2018-May-16 03:53N 34°37' E 135°26'0 0.0
2018-May-16 03:29N 34°37' E 135°26'0 0.0
2018-May-16 02:59N 34°37' E 135°26'0 0.0
2018-May-16 02:29N 34°37' E 135°26'0 0.0
2018-May-16 00:41N 34°37' E 135°26'0 0.0
2018-May-16 00:29N 34°37' E 135°26'0 0.0
2018-May-15 23:59N 34°37' E 135°26'0 0.0
2018-May-15 23:29N 34°37' E 135°26'0 0.0
2018-May-15 22:59N 34°37' E 135°26'0 0.1
2018-May-15 22:17N 34°37' E 135°26'0 0.1
2018-May-15 21:53N 34°37' E 135°26'0 0.0
2018-May-15 21:29N 34°37' E 135°26'0 0.0
2018-May-15 20:47N 34°37' E 135°26'0 0.0
2018-May-15 20:29N 34°37' E 135°26'0 0.0
2018-May-15 19:59N 34°37' E 135°26'0 0.0
2018-May-15 19:29N 34°37' E 135°26'0 0.0
2018-May-15 18:59N 34°37' E 135°26'0 0.1
2018-May-15 18:29N 34°37' E 135°26'0 0.1
2018-May-15 17:59N 34°37' E 135°26'0 0.0
2018-May-15 17:29N 34°37' E 135°26'0 0.0
2018-May-15 16:59N 34°37' E 135°26'0 0.0
2018-May-15 16:29N 34°37' E 135°26'0 0.0
2018-May-15 15:59N 34°37' E 135°26'0 0.0
2018-May-15 15:29N 34°37' E 135°26'0 0.0
2018-May-15 14:59N 34°37' E 135°26'0 0.0
2018-May-15 14:29N 34°37' E 135°26'0 0.0
2018-May-15 13:56N 34°37' E 135°26'0 0.0
2018-May-15 13:29N 34°37' E 135°26'0 0.0
2018-May-15 12:59N 34°37' E 135°26'0 0.0
2018-May-15 12:29N 34°37' E 135°26'0 0.0
2018-May-15 11:59N 34°37' E 135°26'0 0.0
2018-May-15 11:29N 34°37' E 135°26'0 0.1
2018-May-15 10:59N 34°37' E 135°26'0 0.1
2018-May-15 10:29N 34°37' E 135°26'0 0.1
2018-May-15 09:58N 34°37' E 135°26'0 0.0
2018-May-15 09:28N 34°37' E 135°26'0 0.1
2018-May-15 08:58N 34°37' E 135°26'0 0.0
2018-May-15 08:28N 34°37' E 135°26'0 0.0
2018-May-15 07:58N 34°37' E 135°26'0 0.1
2018-May-15 07:22N 34°37' E 135°26'0 0.1
2018-May-15 06:58N 34°37' E 135°26'0 0.0
2018-May-15 06:28N 34°37' E 135°26'0 0.0
2018-May-15 05:58N 34°37' E 135°26'0 0.0
2018-May-15 05:28N 34°37' E 135°26'0 0.0
2018-May-15 04:58N 34°37' E 135°26'0 0.0
2018-May-15 04:28N 34°37' E 135°26'0 0.4
2018-May-15 04:00N 34°37' E 135°26'4 8.1
2018-May-15 03:30N 34°36' E 135°21'612.2
2018-May-15 03:00N 34°32' E 135°16'611.8
2018-May-15 02:30N 34°28' E 135°10'611.7
2018-May-15 02:00N 34°23' E 135°06'611.6
2018-May-15 01:30N 34°19' E 135°01'510.7
2018-May-15 01:00N 34°14' E 134°60'611.1
2018-May-15 00:30N 34°08' E 134°58'612.1
2018-May-15 00:00N 34°03' E 134°54'511.0
2018-May-14 23:30N 33°58' E 134°52'611.9
2018-May-14 23:01N 33°53' E 134°56'612.3
2018-May-14 22:30N 33°47' E 134°59'612.3
2018-May-14 22:00N 33°42' E 135°03'14 8.4
2018-May-14 20:17N 33°30' E 135°13'412.4
2018-May-14 19:56N 33°27' E 135°16'7811.0
2018-May-14 12:50N 33°55' E 136°43'6611.7
2018-May-14 07:12N 34°28' E 137°52'211.4
2018-May-14 06:59N 34°28' E 137°55'511.2
2018-May-14 06:30N 34°29' E 138°01'611.1
2018-May-14 05:58N 34°31' E 138°08'510.6
2018-May-14 05:30N 34°32' E 138°14'611.0
2018-May-14 04:57N 34°32' E 138°22'510.8
2018-May-14 04:30N 34°32' E 138°28'610.6
2018-May-14 03:55N 34°32' E 138°35'1110.9
2018-May-14 02:57N 34°33' E 138°48'6 9.8
2018-May-14 02:19N 34°33' E 138°55'3 9.0
2018-May-14 02:00N 34°33' E 138°59'7 9.5
2018-May-14 01:16N 34°35' E 139°07'2 9.6
2018-May-14 01:00N 34°35' E 139°10'5 8.6
2018-May-14 00:28N 34°36' E 139°15'7 8.7
2018-May-13 23:39N 34°38' E 139°24'2 9.3
2018-May-13 23:29N 34°38' E 139°26'4 8.7
2018-May-13 23:00N 34°39' E 139°31'15 9.1
2018-May-13 21:18N 34°45' E 139°48'1210.7
2018-May-13 20:08N 34°52' E 140°00'211.7
2018-May-13 20:00N 34°53' E 140°02'612.1
2018-May-13 19:30N 34°57' E 140°08'  
Track history (hours):
 
Tides and Currents Weather Stations Pressure Air Temp Water Temp Dewpoint Dewpoint Depression Visibility Wind Speed Wind Dir Waves Ship Positions

Ryoei Maru

Last reported at 2018-May-22 20:30 UTC. Time now 2018-May-22 23:39 UTC.
Position N 34°44' E 139°38'.

Length 95 m; draft 5 m.

Type: Cargo ship. MMSI: 431501749.

Date/timePositionNaut miles runAvg speedWind from/ knotsBaromVisibWave heightAir tempDewpointWater temp
2018-May-22 20:30N 34°44' E 139°38'711.9
2018-May-22 19:56N 34°47' E 139°45'  
2018-May-17 12:02N 33°43' E 135°10'212.4
2018-May-17 11:53N 33°45' E 135°08'512.3
2018-May-17 11:30N 33°48' E 135°04'611.4
2018-May-17 11:00N 33°53' E 135°01'611.0
2018-May-17 10:31N 33°58' E 134°59'611.4
2018-May-17 10:00N 34°04' E 134°59'611.3
2018-May-17 09:30N 34°09' E 134°59'713.3
2018-May-17 09:00N 34°16' E 134°59'611.9
2018-May-17 08:30N 34°22' E 134°60'611.7
2018-May-17 08:00N 34°28' E 135°02'611.9
2018-May-17 07:30N 34°33' E 135°04'712.5
2018-May-17 06:58N 34°36' E 134°57'714.4
2018-May-17 06:30N 34°40' E 134°49'3 0.4
2018-May-16 22:04N 34°43' E 134°51'0 6.9
2018-May-16 22:00N 34°42' E 134°50'2 4.3
2018-May-16 21:26N 34°40' E 134°49'0 0.0
2018-May-16 20:56N 34°40' E 134°49'0 0.0
2018-May-16 20:29N 34°40' E 134°49'0 0.0
2018-May-16 19:59N 34°40' E 134°49'0 0.0
2018-May-16 19:29N 34°40' E 134°49'0 0.0
2018-May-16 18:59N 34°40' E 134°49'0 0.0
2018-May-16 18:29N 34°40' E 134°49'0 0.0
2018-May-16 17:59N 34°40' E 134°49'0 0.0
2018-May-16 17:29N 34°40' E 134°49'0 0.0
2018-May-16 16:59N 34°40' E 134°49'0 0.0
2018-May-16 16:29N 34°40' E 134°49'0 0.0
2018-May-16 15:59N 34°40' E 134°49'0 0.0
2018-May-16 15:29N 34°40' E 134°49'0 0.0
2018-May-16 14:59N 34°40' E 134°49'0 0.0
2018-May-16 14:29N 34°40' E 134°49'1 1.1
2018-May-16 14:01N 34°40' E 134°50'612.3
2018-May-16 13:31N 34°38' E 134°57'714.3
2018-May-16 13:00N 34°36' E 135°05'612.9
2018-May-16 12:30N 34°36' E 135°13'612.3
2018-May-16 12:00N 34°37' E 135°21'4 8.1
2018-May-16 11:30N 34°37' E 135°26'0 0.0
2018-May-16 10:59N 34°37' E 135°26'0 0.0
2018-May-16 10:29N 34°37' E 135°26'0 0.0
2018-May-16 09:41N 34°37' E 135°26'0 0.0
2018-May-16 09:29N 34°37' E 135°26'0 0.0
2018-May-16 08:59N 34°37' E 135°26'0 0.0
2018-May-16 08:29N 34°37' E 135°26'0 0.0
2018-May-16 07:53N 34°37' E 135°26'0 0.0
2018-May-16 07:17N 34°37' E 135°26'0 0.0
2018-May-16 06:59N 34°37' E 135°26'0 0.0
2018-May-16 06:29N 34°37' E 135°26'0 0.0
2018-May-16 05:53N 34°37' E 135°26'0 0.0
2018-May-16 05:29N 34°37' E 135°26'0 0.0
2018-May-16 03:53N 34°37' E 135°26'0 0.0
2018-May-16 03:29N 34°37' E 135°26'0 0.0
2018-May-16 02:59N 34°37' E 135°26'0 0.0
2018-May-16 02:29N 34°37' E 135°26'0 0.0
2018-May-16 00:41N 34°37' E 135°26'0 0.0
2018-May-16 00:29N 34°37' E 135°26'0 0.0
2018-May-15 23:59N 34°37' E 135°26'0 0.0
2018-May-15 23:29N 34°37' E 135°26'0 0.0
2018-May-15 22:59N 34°37' E 135°26'0 0.1
2018-May-15 22:17N 34°37' E 135°26'0 0.1
2018-May-15 21:53N 34°37' E 135°26'0 0.0
2018-May-15 21:29N 34°37' E 135°26'0 0.0
2018-May-15 20:47N 34°37' E 135°26'0 0.0
2018-May-15 20:29N 34°37' E 135°26'0 0.0
2018-May-15 19:59N 34°37' E 135°26'0 0.0
2018-May-15 19:29N 34°37' E 135°26'0 0.0
2018-May-15 18:59N 34°37' E 135°26'0 0.1
2018-May-15 18:29N 34°37' E 135°26'0 0.1
2018-May-15 17:59N 34°37' E 135°26'0 0.0
2018-May-15 17:29N 34°37' E 135°26'0 0.0
2018-May-15 16:59N 34°37' E 135°26'0 0.0
2018-May-15 16:29N 34°37' E 135°26'0 0.0
2018-May-15 15:59N 34°37' E 135°26'0 0.0
2018-May-15 15:29N 34°37' E 135°26'0 0.0
2018-May-15 14:59N 34°37' E 135°26'0 0.0
2018-May-15 14:29N 34°37' E 135°26'0 0.0
2018-May-15 13:56N 34°37' E 135°26'0 0.0
2018-May-15 13:29N 34°37' E 135°26'0 0.0
2018-May-15 12:59N 34°37' E 135°26'0 0.0
2018-May-15 12:29N 34°37' E 135°26'0 0.0
2018-May-15 11:59N 34°37' E 135°26'0 0.0
2018-May-15 11:29N 34°37' E 135°26'0 0.1
2018-May-15 10:59N 34°37' E 135°26'0 0.1
2018-May-15 10:29N 34°37' E 135°26'0 0.1
2018-May-15 09:58N 34°37' E 135°26'0 0.0
2018-May-15 09:28N 34°37' E 135°26'0 0.1
2018-May-15 08:58N 34°37' E 135°26'0 0.0
2018-May-15 08:28N 34°37' E 135°26'0 0.0
2018-May-15 07:58N 34°37' E 135°26'0 0.1
2018-May-15 07:22N 34°37' E 135°26'0 0.1
2018-May-15 06:58N 34°37' E 135°26'0 0.0
2018-May-15 06:28N 34°37' E 135°26'0 0.0
2018-May-15 05:58N 34°37' E 135°26'0 0.0
2018-May-15 05:28N 34°37' E 135°26'0 0.0
2018-May-15 04:58N 34°37' E 135°26'0 0.0
2018-May-15 04:28N 34°37' E 135°26'0 0.4
2018-May-15 04:00N 34°37' E 135°26'4 8.1
2018-May-15 03:30N 34°36' E 135°21'612.2
2018-May-15 03:00N 34°32' E 135°16'611.8
2018-May-15 02:30N 34°28' E 135°10'611.7
2018-May-15 02:00N 34°23' E 135°06'611.6
2018-May-15 01:30N 34°19' E 135°01'510.7
2018-May-15 01:00N 34°14' E 134°60'611.1
2018-May-15 00:30N 34°08' E 134°58'612.1
2018-May-15 00:00N 34°03' E 134°54'511.0
2018-May-14 23:30N 33°58' E 134°52'611.9
2018-May-14 23:01N 33°53' E 134°56'612.3
2018-May-14 22:30N 33°47' E 134°59'612.3
2018-May-14 22:00N 33°42' E 135°03'14 8.4
2018-May-14 20:17N 33°30' E 135°13'412.4
2018-May-14 19:56N 33°27' E 135°16'7811.0
2018-May-14 12:50N 33°55' E 136°43'6611.7
2018-May-14 07:12N 34°28' E 137°52'211.4
2018-May-14 06:59N 34°28' E 137°55'511.2
2018-May-14 06:30N 34°29' E 138°01'611.1
2018-May-14 05:58N 34°31' E 138°08'510.6
2018-May-14 05:30N 34°32' E 138°14'611.0
2018-May-14 04:57N 34°32' E 138°22'510.8
2018-May-14 04:30N 34°32' E 138°28'610.6
2018-May-14 03:55N 34°32' E 138°35'1110.9
2018-May-14 02:57N 34°33' E 138°48'6 9.8
2018-May-14 02:19N 34°33' E 138°55'3 9.0
2018-May-14 02:00N 34°33' E 138°59'7 9.5
2018-May-14 01:16N 34°35' E 139°07'2 9.6
2018-May-14 01:00N 34°35' E 139°10'5 8.6
2018-May-14 00:28N 34°36' E 139°15'7 8.7
2018-May-13 23:39N 34°38' E 139°24'2 9.3
2018-May-13 23:29N 34°38' E 139°26'4 8.7
2018-May-13 23:00N 34°39' E 139°31'15 9.1
2018-May-13 21:18N 34°45' E 139°48'1210.7
2018-May-13 20:08N 34°52' E 140°00'211.7
2018-May-13 20:00N 34°53' E 140°02'612.1
2018-May-13 19:30N 34°57' E 140°08'  

Dump ship's entire track history